sensor_id;sensor_type;location;lat;lon;timestamp;P1;durP1;ratioP1;P2;durP2;ratioP2
10701;SDS011;5402;50.004;8.246;2023-12-28T00:01:47;10.07;;;5.93;;
10701;SDS011;5402;50.004;8.246;2023-12-28T00:04:16;10.47;;;6.90;;
10701;SDS011;5402;50.004;8.246;2023-12-28T00:06:43;9.70;;;5.80;;
10701;SDS011;5402;50.004;8.246;2023-12-28T00:09:10;10.87;;;6.40;;
10701;SDS011;5402;50.004;8.246;2023-12-28T00:11:36;8.03;;;6.23;;
10701;SDS011;5402;50.004;8.246;2023-12-28T00:14:03;9.77;;;6.17;;
10701;SDS011;5402;50.004;8.246;2023-12-28T00:16:30;11.63;;;6.70;;
10701;SDS011;5402;50.004;8.246;2023-12-28T00:18:58;9.20;;;6.70;;
10701;SDS011;5402;50.004;8.246;2023-12-28T00:21:28;10.03;;;6.33;;
10701;SDS011;5402;50.004;8.246;2023-12-28T00:23:55;12.30;;;7.30;;
10701;SDS011;5402;50.004;8.246;2023-12-28T00:26:21;9.77;;;6.87;;
10701;SDS011;5402;50.004;8.246;2023-12-28T00:28:48;9.47;;;6.17;;
10701;SDS011;5402;50.004;8.246;2023-12-28T00:31:15;15.33;;;6.97;;
10701;SDS011;5402;50.004;8.246;2023-12-28T00:33:42;10.07;;;6.43;;
10701;SDS011;5402;50.004;8.246;2023-12-28T00:36:08;12.07;;;6.87;;
10701;SDS011;5402;50.004;8.246;2023-12-28T00:38:36;11.17;;;6.87;;
10701;SDS011;5402;50.004;8.246;2023-12-28T00:41:03;11.20;;;6.70;;
10701;SDS011;5402;50.004;8.246;2023-12-28T00:43:30;11.83;;;6.57;;
10701;SDS011;5402;50.004;8.246;2023-12-28T00:45:57;18.43;;;7.70;;
10701;SDS011;5402;50.004;8.246;2023-12-28T00:48:24;13.07;;;7.93;;
10701;SDS011;5402;50.004;8.246;2023-12-28T00:50:50;10.20;;;6.83;;
10701;SDS011;5402;50.004;8.246;2023-12-28T00:53:17;15.63;;;7.47;;
10701;SDS011;5402;50.004;8.246;2023-12-28T00:55:46;13.13;;;7.40;;
10701;SDS011;5402;50.004;8.246;2023-12-28T00:58:12;10.57;;;6.80;;
10701;SDS011;5402;50.004;8.246;2023-12-28T01:00:39;13.43;;;6.93;;
10701;SDS011;5402;50.004;8.246;2023-12-28T01:03:08;14.93;;;6.67;;
10701;SDS011;5402;50.004;8.246;2023-12-28T01:05:35;13.67;;;6.53;;
10701;SDS011;5402;50.004;8.246;2023-12-28T01:08:01;11.80;;;7.63;;
10701;SDS011;5402;50.004;8.246;2023-12-28T01:10:29;12.23;;;7.50;;
10701;SDS011;5402;50.004;8.246;2023-12-28T01:12:58;12.90;;;7.23;;
10701;SDS011;5402;50.004;8.246;2023-12-28T01:15:24;12.07;;;7.27;;
10701;SDS011;5402;50.004;8.246;2023-12-28T01:17:51;11.63;;;7.07;;
10701;SDS011;5402;50.004;8.246;2023-12-28T01:20:18;12.00;;;7.10;;
10701;SDS011;5402;50.004;8.246;2023-12-28T01:22:44;12.33;;;7.20;;
10701;SDS011;5402;50.004;8.246;2023-12-28T01:25:11;12.73;;;7.57;;
10701;SDS011;5402;50.004;8.246;2023-12-28T01:27:38;10.70;;;6.67;;
10701;SDS011;5402;50.004;8.246;2023-12-28T01:30:06;13.17;;;6.73;;
10701;SDS011;5402;50.004;8.246;2023-12-28T01:32:34;13.23;;;7.23;;
10701;SDS011;5402;50.004;8.246;2023-12-28T01:35:00;11.67;;;6.33;;
10701;SDS011;5402;50.004;8.246;2023-12-28T01:37:27;8.80;;;6.43;;
10701;SDS011;5402;50.004;8.246;2023-12-28T01:39:56;12.10;;;6.33;;
10701;SDS011;5402;50.004;8.246;2023-12-28T01:42:23;11.90;;;6.90;;
10701;SDS011;5402;50.004;8.246;2023-12-28T01:44:49;10.73;;;6.63;;
10701;SDS011;5402;50.004;8.246;2023-12-28T01:47:17;10.57;;;7.00;;
10701;SDS011;5402;50.004;8.246;2023-12-28T01:49:45;11.17;;;6.97;;
10701;SDS011;5402;50.004;8.246;2023-12-28T01:52:12;14.43;;;7.03;;
10701;SDS011;5402;50.004;8.246;2023-12-28T01:54:39;12.47;;;7.27;;
10701;SDS011;5402;50.004;8.246;2023-12-28T01:57:06;9.87;;;6.97;;
10701;SDS011;5402;50.004;8.246;2023-12-28T01:59:33;10.17;;;6.83;;
10701;SDS011;5402;50.004;8.246;2023-12-28T02:02:00;11.40;;;6.57;;
10701;SDS011;5402;50.004;8.246;2023-12-28T02:04:28;12.07;;;6.83;;
10701;SDS011;5402;50.004;8.246;2023-12-28T02:06:56;10.20;;;7.00;;
10701;SDS011;5402;50.004;8.246;2023-12-28T02:09:23;8.73;;;6.17;;
10701;SDS011;5402;50.004;8.246;2023-12-28T02:11:50;10.37;;;6.70;;
10701;SDS011;5402;50.004;8.246;2023-12-28T02:14:17;11.40;;;6.83;;
10701;SDS011;5402;50.004;8.246;2023-12-28T02:16:46;12.23;;;6.93;;
10701;SDS011;5402;50.004;8.246;2023-12-28T02:19:17;10.67;;;6.83;;
10701;SDS011;5402;50.004;8.246;2023-12-28T02:21:53;12.97;;;7.77;;
10701;SDS011;5402;50.004;8.246;2023-12-28T02:24:21;11.50;;;7.33;;
10701;SDS011;5402;50.004;8.246;2023-12-28T02:26:49;11.57;;;7.30;;
10701;SDS011;5402;50.004;8.246;2023-12-28T02:29:16;10.57;;;7.17;;
10701;SDS011;5402;50.004;8.246;2023-12-28T02:31:45;11.33;;;7.30;;
10701;SDS011;5402;50.004;8.246;2023-12-28T02:34:19;10.00;;;7.07;;
10701;SDS011;5402;50.004;8.246;2023-12-28T02:36:52;11.70;;;7.57;;
10701;SDS011;5402;50.004;8.246;2023-12-28T02:39:20;9.90;;;6.97;;
10701;SDS011;5402;50.004;8.246;2023-12-28T02:41:49;11.00;;;6.83;;
10701;SDS011;5402;50.004;8.246;2023-12-28T02:44:17;12.80;;;7.33;;
10701;SDS011;5402;50.004;8.246;2023-12-28T02:46:45;10.63;;;6.83;;
10701;SDS011;5402;50.004;8.246;2023-12-28T02:49:11;12.00;;;6.83;;
10701;SDS011;5402;50.004;8.246;2023-12-28T02:51:40;12.30;;;7.50;;
10701;SDS011;5402;50.004;8.246;2023-12-28T02:54:07;10.80;;;7.20;;
10701;SDS011;5402;50.004;8.246;2023-12-28T02:56:34;10.03;;;6.10;;
10701;SDS011;5402;50.004;8.246;2023-12-28T02:59:02;8.93;;;5.30;;
10701;SDS011;5402;50.004;8.246;2023-12-28T03:01:29;6.87;;;4.67;;
10701;SDS011;5402;50.004;8.246;2023-12-28T03:03:55;6.23;;;3.83;;
10701;SDS011;5402;50.004;8.246;2023-12-28T03:06:22;4.63;;;3.83;;
10701;SDS011;5402;50.004;8.246;2023-12-28T03:08:49;4.70;;;3.60;;
10701;SDS011;5402;50.004;8.246;2023-12-28T03:11:15;4.47;;;3.37;;
10701;SDS011;5402;50.004;8.246;2023-12-28T03:13:42;7.83;;;3.27;;
10701;SDS011;5402;50.004;8.246;2023-12-28T03:16:10;4.03;;;3.53;;
10701;SDS011;5402;50.004;8.246;2023-12-28T03:18:39;4.20;;;3.33;;
10701;SDS011;5402;50.004;8.246;2023-12-28T03:21:05;3.97;;;2.87;;
10701;SDS011;5402;50.004;8.246;2023-12-28T03:23:32;5.17;;;3.30;;
10701;SDS011;5402;50.004;8.246;2023-12-28T03:26:00;5.00;;;3.47;;
10701;SDS011;5402;50.004;8.246;2023-12-28T03:28:26;3.90;;;3.40;;
10701;SDS011;5402;50.004;8.246;2023-12-28T03:30:53;5.03;;;3.23;;
10701;SDS011;5402;50.004;8.246;2023-12-28T03:33:21;3.83;;;3.00;;
10701;SDS011;5402;50.004;8.246;2023-12-28T03:35:48;5.00;;;2.93;;
10701;SDS011;5402;50.004;8.246;2023-12-28T03:38:16;4.30;;;3.10;;
10701;SDS011;5402;50.004;8.246;2023-12-28T03:40:42;5.30;;;2.77;;
10701;SDS011;5402;50.004;8.246;2023-12-28T03:43:12;4.00;;;2.90;;
10701;SDS011;5402;50.004;8.246;2023-12-28T03:45:39;4.43;;;3.13;;
10701;SDS011;5402;50.004;8.246;2023-12-28T03:48:06;5.07;;;2.87;;
10701;SDS011;5402;50.004;8.246;2023-12-28T03:50:34;3.53;;;3.07;;
10701;SDS011;5402;50.004;8.246;2023-12-28T03:53:00;4.60;;;2.90;;
10701;SDS011;5402;50.004;8.246;2023-12-28T03:55:27;4.23;;;3.07;;
10701;SDS011;5402;50.004;8.246;2023-12-28T03:57:54;3.90;;;2.87;;
10701;SDS011;5402;50.004;8.246;2023-12-28T04:00:21;6.57;;;3.40;;
10701;SDS011;5402;50.004;8.246;2023-12-28T04:02:48;5.43;;;2.90;;
10701;SDS011;5402;50.004;8.246;2023-12-28T04:05:15;4.30;;;2.93;;
10701;SDS011;5402;50.004;8.246;2023-12-28T04:07:43;3.90;;;2.80;;
10701;SDS011;5402;50.004;8.246;2023-12-28T04:10:09;4.43;;;3.30;;
10701;SDS011;5402;50.004;8.246;2023-12-28T04:12:36;4.23;;;3.40;;
10701;SDS011;5402;50.004;8.246;2023-12-28T04:15:03;4.83;;;3.23;;
10701;SDS011;5402;50.004;8.246;2023-12-28T04:17:30;4.13;;;2.83;;
10701;SDS011;5402;50.004;8.246;2023-12-28T04:19:57;4.83;;;3.07;;
10701;SDS011;5402;50.004;8.246;2023-12-28T04:22:24;4.90;;;3.20;;
10701;SDS011;5402;50.004;8.246;2023-12-28T04:24:52;4.90;;;2.97;;
10701;SDS011;5402;50.004;8.246;2023-12-28T04:27:18;4.07;;;2.93;;
10701;SDS011;5402;50.004;8.246;2023-12-28T04:29:45;4.60;;;2.83;;
10701;SDS011;5402;50.004;8.246;2023-12-28T04:32:13;4.10;;;3.13;;
10701;SDS011;5402;50.004;8.246;2023-12-28T04:34:40;3.90;;;3.03;;
10701;SDS011;5402;50.004;8.246;2023-12-28T04:37:07;3.20;;;2.70;;
10701;SDS011;5402;50.004;8.246;2023-12-28T04:39:34;4.87;;;3.00;;
10701;SDS011;5402;50.004;8.246;2023-12-28T04:42:02;3.80;;;2.77;;
10701;SDS011;5402;50.004;8.246;2023-12-28T04:44:29;6.40;;;3.70;;
10701;SDS011;5402;50.004;8.246;2023-12-28T04:46:55;3.37;;;3.07;;
10701;SDS011;5402;50.004;8.246;2023-12-28T04:49:23;3.53;;;2.90;;
10701;SDS011;5402;50.004;8.246;2023-12-28T04:51:50;5.60;;;2.90;;
10701;SDS011;5402;50.004;8.246;2023-12-28T04:54:16;4.47;;;2.57;;
10701;SDS011;5402;50.004;8.246;2023-12-28T04:56:43;5.20;;;3.23;;
10701;SDS011;5402;50.004;8.246;2023-12-28T04:59:11;4.27;;;3.03;;
10701;SDS011;5402;50.004;8.246;2023-12-28T05:01:41;4.57;;;3.10;;
10701;SDS011;5402;50.004;8.246;2023-12-28T05:04:08;4.60;;;3.00;;
10701;SDS011;5402;50.004;8.246;2023-12-28T05:06:34;3.20;;;2.90;;
10701;SDS011;5402;50.004;8.246;2023-12-28T05:09:01;3.97;;;3.10;;
10701;SDS011;5402;50.004;8.246;2023-12-28T05:11:28;4.00;;;3.10;;
10701;SDS011;5402;50.004;8.246;2023-12-28T05:13:55;5.33;;;3.33;;
10701;SDS011;5402;50.004;8.246;2023-12-28T05:16:24;4.40;;;3.60;;
10701;SDS011;5402;50.004;8.246;2023-12-28T05:18:50;4.07;;;3.07;;
10701;SDS011;5402;50.004;8.246;2023-12-28T05:21:17;5.10;;;3.47;;
10701;SDS011;5402;50.004;8.246;2023-12-28T05:23:44;4.43;;;3.37;;
10701;SDS011;5402;50.004;8.246;2023-12-28T05:26:11;4.50;;;3.43;;
10701;SDS011;5402;50.004;8.246;2023-12-28T05:28:38;4.30;;;3.50;;
10701;SDS011;5402;50.004;8.246;2023-12-28T05:31:05;5.50;;;3.20;;
10701;SDS011;5402;50.004;8.246;2023-12-28T05:33:33;5.90;;;3.30;;
10701;SDS011;5402;50.004;8.246;2023-12-28T05:35:59;4.50;;;3.00;;
10701;SDS011;5402;50.004;8.246;2023-12-28T05:38:26;10.70;;;8.27;;
10701;SDS011;5402;50.004;8.246;2023-12-28T05:40:53;8.53;;;6.33;;
10701;SDS011;5402;50.004;8.246;2023-12-28T05:43:19;4.87;;;3.43;;
10701;SDS011;5402;50.004;8.246;2023-12-28T05:45:46;3.73;;;3.07;;
10701;SDS011;5402;50.004;8.246;2023-12-28T05:48:13;6.53;;;3.33;;
10701;SDS011;5402;50.004;8.246;2023-12-28T05:50:41;3.87;;;3.23;;
10701;SDS011;5402;50.004;8.246;2023-12-28T05:53:07;4.20;;;3.40;;
10701;SDS011;5402;50.004;8.246;2023-12-28T05:55:38;5.17;;;3.03;;
10701;SDS011;5402;50.004;8.246;2023-12-28T05:58:05;4.17;;;2.80;;
10701;SDS011;5402;50.004;8.246;2023-12-28T06:00:32;4.63;;;3.20;;
10701;SDS011;5402;50.004;8.246;2023-12-28T06:02:58;4.17;;;3.20;;
10701;SDS011;5402;50.004;8.246;2023-12-28T06:05:27;3.77;;;3.00;;
10701;SDS011;5402;50.004;8.246;2023-12-28T06:07:55;6.00;;;3.20;;
10701;SDS011;5402;50.004;8.246;2023-12-28T06:10:22;5.13;;;3.23;;
10701;SDS011;5402;50.004;8.246;2023-12-28T06:12:49;4.97;;;3.20;;
10701;SDS011;5402;50.004;8.246;2023-12-28T06:15:16;3.37;;;2.90;;
10701;SDS011;5402;50.004;8.246;2023-12-28T06:17:42;4.43;;;2.90;;
10701;SDS011;5402;50.004;8.246;2023-12-28T06:20:10;5.30;;;2.80;;
10701;SDS011;5402;50.004;8.246;2023-12-28T06:22:37;3.20;;;2.90;;
10701;SDS011;5402;50.004;8.246;2023-12-28T06:25:05;5.67;;;2.93;;
10701;SDS011;5402;50.004;8.246;2023-12-28T06:27:33;2.73;;;2.17;;
10701;SDS011;5402;50.004;8.246;2023-12-28T06:29:59;3.33;;;2.10;;
10701;SDS011;5402;50.004;8.246;2023-12-28T06:32:26;3.07;;;2.20;;
10701;SDS011;5402;50.004;8.246;2023-12-28T06:34:53;4.13;;;2.30;;
10701;SDS011;5402;50.004;8.246;2023-12-28T06:37:20;2.23;;;2.03;;
10701;SDS011;5402;50.004;8.246;2023-12-28T06:39:46;2.97;;;2.23;;
10701;SDS011;5402;50.004;8.246;2023-12-28T06:42:15;2.27;;;2.07;;
10701;SDS011;5402;50.004;8.246;2023-12-28T06:44:42;2.77;;;2.10;;
10701;SDS011;5402;50.004;8.246;2023-12-28T06:47:09;2.40;;;2.20;;
10701;SDS011;5402;50.004;8.246;2023-12-28T06:49:36;2.60;;;2.40;;
10701;SDS011;5402;50.004;8.246;2023-12-28T06:52:02;2.30;;;2.00;;
10701;SDS011;5402;50.004;8.246;2023-12-28T06:54:29;3.63;;;2.13;;
10701;SDS011;5402;50.004;8.246;2023-12-28T06:56:56;2.80;;;2.30;;
10701;SDS011;5402;50.004;8.246;2023-12-28T06:59:24;3.23;;;2.13;;
10701;SDS011;5402;50.004;8.246;2023-12-28T07:01:51;4.97;;;2.30;;
10701;SDS011;5402;50.004;8.246;2023-12-28T07:04:17;2.70;;;2.20;;
10701;SDS011;5402;50.004;8.246;2023-12-28T07:06:44;2.50;;;2.00;;
10701;SDS011;5402;50.004;8.246;2023-12-28T07:09:11;2.27;;;2.07;;
10701;SDS011;5402;50.004;8.246;2023-12-28T07:11:37;2.60;;;2.00;;
10701;SDS011;5402;50.004;8.246;2023-12-28T07:14:04;3.17;;;2.27;;
10701;SDS011;5402;50.004;8.246;2023-12-28T07:16:32;3.67;;;2.40;;
10701;SDS011;5402;50.004;8.246;2023-12-28T07:18:59;3.17;;;2.20;;
10701;SDS011;5402;50.004;8.246;2023-12-28T07:21:26;3.80;;;2.60;;
10701;SDS011;5402;50.004;8.246;2023-12-28T07:23:52;3.47;;;2.63;;
10701;SDS011;5402;50.004;8.246;2023-12-28T07:26:19;2.80;;;2.37;;
10701;SDS011;5402;50.004;8.246;2023-12-28T07:28:46;3.10;;;2.70;;
10701;SDS011;5402;50.004;8.246;2023-12-28T07:31:21;2.30;;;2.10;;
10701;SDS011;5402;50.004;8.246;2023-12-28T07:33:50;2.60;;;2.40;;
10701;SDS011;5402;50.004;8.246;2023-12-28T07:36:17;3.37;;;2.67;;
10701;SDS011;5402;50.004;8.246;2023-12-28T07:38:43;3.50;;;2.60;;
10701;SDS011;5402;50.004;8.246;2023-12-28T07:41:10;3.47;;;2.40;;
10701;SDS011;5402;50.004;8.246;2023-12-28T07:43:37;3.20;;;2.40;;
10701;SDS011;5402;50.004;8.246;2023-12-28T07:46:04;3.17;;;2.37;;
10701;SDS011;5402;50.004;8.246;2023-12-28T07:48:30;3.67;;;2.50;;
10701;SDS011;5402;50.004;8.246;2023-12-28T07:50:58;3.33;;;2.70;;
10701;SDS011;5402;50.004;8.246;2023-12-28T07:53:30;3.50;;;2.50;;
10701;SDS011;5402;50.004;8.246;2023-12-28T07:55:57;2.93;;;2.37;;
10701;SDS011;5402;50.004;8.246;2023-12-28T07:58:23;4.93;;;2.73;;
10701;SDS011;5402;50.004;8.246;2023-12-28T08:00:50;4.40;;;2.80;;
10701;SDS011;5402;50.004;8.246;2023-12-28T08:03:17;2.60;;;2.40;;
10701;SDS011;5402;50.004;8.246;2023-12-28T08:05:44;4.77;;;3.00;;
10701;SDS011;5402;50.004;8.246;2023-12-28T08:08:12;4.93;;;2.63;;
10701;SDS011;5402;50.004;8.246;2023-12-28T08:10:39;3.13;;;2.80;;
10701;SDS011;5402;50.004;8.246;2023-12-28T08:13:06;3.80;;;2.70;;
10701;SDS011;5402;50.004;8.246;2023-12-28T08:15:32;3.83;;;2.97;;
10701;SDS011;5402;50.004;8.246;2023-12-28T08:17:59;2.90;;;2.60;;
10701;SDS011;5402;50.004;8.246;2023-12-28T08:20:26;3.27;;;2.90;;
10701;SDS011;5402;50.004;8.246;2023-12-28T08:22:52;3.47;;;2.43;;
10701;SDS011;5402;50.004;8.246;2023-12-28T08:25:20;3.67;;;2.50;;
10701;SDS011;5402;50.004;8.246;2023-12-28T08:27:47;4.93;;;2.60;;
10701;SDS011;5402;50.004;8.246;2023-12-28T08:30:14;2.83;;;2.50;;
10701;SDS011;5402;50.004;8.246;2023-12-28T08:32:41;3.60;;;2.60;;
10701;SDS011;5402;50.004;8.246;2023-12-28T08:35:08;3.47;;;2.70;;
10701;SDS011;5402;50.004;8.246;2023-12-28T08:37:34;2.83;;;2.50;;
10701;SDS011;5402;50.004;8.246;2023-12-28T08:40:01;3.40;;;2.70;;
10701;SDS011;5402;50.004;8.246;2023-12-28T08:42:30;2.90;;;2.40;;
10701;SDS011;5402;50.004;8.246;2023-12-28T08:44:57;3.33;;;2.70;;
10701;SDS011;5402;50.004;8.246;2023-12-28T08:47:23;3.20;;;2.57;;
10701;SDS011;5402;50.004;8.246;2023-12-28T08:49:50;3.53;;;2.73;;
10701;SDS011;5402;50.004;8.246;2023-12-28T08:52:17;4.33;;;2.90;;
10701;SDS011;5402;50.004;8.246;2023-12-28T08:54:44;5.93;;;2.90;;
10701;SDS011;5402;50.004;8.246;2023-12-28T08:57:10;4.70;;;2.93;;
10701;SDS011;5402;50.004;8.246;2023-12-28T08:59:39;3.90;;;3.00;;
10701;SDS011;5402;50.004;8.246;2023-12-28T09:02:06;3.57;;;2.90;;
10701;SDS011;5402;50.004;8.246;2023-12-28T09:04:33;4.17;;;3.00;;
10701;SDS011;5402;50.004;8.246;2023-12-28T09:07:00;6.27;;;2.77;;
10701;SDS011;5402;50.004;8.246;2023-12-28T09:09:27;3.53;;;3.10;;
10701;SDS011;5402;50.004;8.246;2023-12-28T09:11:54;3.73;;;2.93;;
10701;SDS011;5402;50.004;8.246;2023-12-28T09:14:20;3.70;;;2.93;;
10701;SDS011;5402;50.004;8.246;2023-12-28T09:16:48;5.47;;;2.70;;
10701;SDS011;5402;50.004;8.246;2023-12-28T09:19:15;4.90;;;2.70;;
10701;SDS011;5402;50.004;8.246;2023-12-28T09:21:42;5.70;;;2.97;;
10701;SDS011;5402;50.004;8.246;2023-12-28T09:24:09;4.47;;;3.17;;
10701;SDS011;5402;50.004;8.246;2023-12-28T09:26:35;3.80;;;2.80;;
10701;SDS011;5402;50.004;8.246;2023-12-28T09:29:02;6.27;;;2.60;;
10701;SDS011;5402;50.004;8.246;2023-12-28T09:31:29;4.20;;;2.97;;
10701;SDS011;5402;50.004;8.246;2023-12-28T09:33:57;2.90;;;2.57;;
10701;SDS011;5402;50.004;8.246;2023-12-28T09:36:24;2.93;;;2.23;;
10701;SDS011;5402;50.004;8.246;2023-12-28T09:38:51;4.57;;;2.80;;
10701;SDS011;5402;50.004;8.246;2023-12-28T09:41:18;3.57;;;2.50;;
10701;SDS011;5402;50.004;8.246;2023-12-28T09:43:51;4.50;;;2.57;;
10701;SDS011;5402;50.004;8.246;2023-12-28T09:46:20;3.90;;;2.93;;
10701;SDS011;5402;50.004;8.246;2023-12-28T09:48:47;5.73;;;2.60;;
10701;SDS011;5402;50.004;8.246;2023-12-28T09:51:16;4.30;;;2.10;;
10701;SDS011;5402;50.004;8.246;2023-12-28T09:53:43;5.27;;;2.40;;
10701;SDS011;5402;50.004;8.246;2023-12-28T09:56:10;2.93;;;2.17;;
10701;SDS011;5402;50.004;8.246;2023-12-28T09:58:37;2.53;;;2.10;;
10701;SDS011;5402;50.004;8.246;2023-12-28T10:01:06;2.83;;;2.23;;
10701;SDS011;5402;50.004;8.246;2023-12-28T10:03:35;2.63;;;2.10;;
10701;SDS011;5402;50.004;8.246;2023-12-28T10:06:02;3.03;;;2.40;;
10701;SDS011;5402;50.004;8.246;2023-12-28T10:08:30;2.40;;;2.13;;
10701;SDS011;5402;50.004;8.246;2023-12-28T10:10:57;6.40;;;2.00;;
10701;SDS011;5402;50.004;8.246;2023-12-28T10:13:26;3.17;;;2.10;;
10701;SDS011;5402;50.004;8.246;2023-12-28T10:15:52;4.37;;;2.13;;
10701;SDS011;5402;50.004;8.246;2023-12-28T10:18:22;4.80;;;2.10;;
10701;SDS011;5402;50.004;8.246;2023-12-28T10:20:49;4.93;;;2.40;;
10701;SDS011;5402;50.004;8.246;2023-12-28T10:23:16;2.93;;;2.20;;
10701;SDS011;5402;50.004;8.246;2023-12-28T10:25:46;2.67;;;2.30;;
10701;SDS011;5402;50.004;8.246;2023-12-28T10:28:15;3.30;;;2.10;;
10701;SDS011;5402;50.004;8.246;2023-12-28T10:30:44;2.97;;;2.20;;
10701;SDS011;5402;50.004;8.246;2023-12-28T10:33:10;4.70;;;2.20;;
10701;SDS011;5402;50.004;8.246;2023-12-28T10:35:37;6.33;;;2.40;;
10701;SDS011;5402;50.004;8.246;2023-12-28T10:38:04;3.57;;;2.10;;
10701;SDS011;5402;50.004;8.246;2023-12-28T10:40:33;2.73;;;2.10;;
10701;SDS011;5402;50.004;8.246;2023-12-28T10:43:04;3.53;;;1.60;;
10701;SDS011;5402;50.004;8.246;2023-12-28T10:45:32;5.00;;;2.17;;
10701;SDS011;5402;50.004;8.246;2023-12-28T10:48:05;3.57;;;2.00;;
10701;SDS011;5402;50.004;8.246;2023-12-28T10:50:36;3.23;;;2.17;;
10701;SDS011;5402;50.004;8.246;2023-12-28T10:53:12;2.97;;;2.10;;
10701;SDS011;5402;50.004;8.246;2023-12-28T10:55:48;4.17;;;2.07;;
10701;SDS011;5402;50.004;8.246;2023-12-28T10:58:27;2.53;;;1.97;;
10701;SDS011;5402;50.004;8.246;2023-12-28T11:01:02;1.93;;;1.73;;
10701;SDS011;5402;50.004;8.246;2023-12-28T11:03:32;2.83;;;2.00;;
10701;SDS011;5402;50.004;8.246;2023-12-28T11:06:01;3.13;;;1.73;;
10701;SDS011;5402;50.004;8.246;2023-12-28T11:08:30;1.90;;;1.70;;
10701;SDS011;5402;50.004;8.246;2023-12-28T11:10:58;2.00;;;1.50;;
10701;SDS011;5402;50.004;8.246;2023-12-28T11:13:27;3.13;;;1.90;;
10701;SDS011;5402;50.004;8.246;2023-12-28T11:15:56;3.37;;;1.80;;
10701;SDS011;5402;50.004;8.246;2023-12-28T11:18:23;1.87;;;1.60;;
10701;SDS011;5402;50.004;8.246;2023-12-28T11:20:53;4.20;;;1.80;;
10701;SDS011;5402;50.004;8.246;2023-12-28T11:23:19;3.27;;;2.00;;
10701;SDS011;5402;50.004;8.246;2023-12-28T11:25:46;3.33;;;1.70;;
10701;SDS011;5402;50.004;8.246;2023-12-28T11:28:13;2.00;;;1.57;;
10701;SDS011;5402;50.004;8.246;2023-12-28T11:30:42;4.50;;;1.90;;
10701;SDS011;5402;50.004;8.246;2023-12-28T11:33:09;3.40;;;1.50;;
10701;SDS011;5402;50.004;8.246;2023-12-28T11:35:36;3.13;;;2.00;;
10701;SDS011;5402;50.004;8.246;2023-12-28T11:38:06;2.50;;;1.80;;
10701;SDS011;5402;50.004;8.246;2023-12-28T11:40:44;1.83;;;1.50;;
10701;SDS011;5402;50.004;8.246;2023-12-28T11:43:17;3.93;;;1.90;;
10701;SDS011;5402;50.004;8.246;2023-12-28T11:45:51;3.43;;;1.53;;
10701;SDS011;5402;50.004;8.246;2023-12-28T11:48:24;1.47;;;1.37;;
10701;SDS011;5402;50.004;8.246;2023-12-28T11:50:55;3.40;;;1.60;;
10701;SDS011;5402;50.004;8.246;2023-12-28T11:53:23;2.43;;;1.67;;
10701;SDS011;5402;50.004;8.246;2023-12-28T11:55:51;3.03;;;1.90;;
10701;SDS011;5402;50.004;8.246;2023-12-28T11:58:18;2.77;;;1.70;;
10701;SDS011;5402;50.004;8.246;2023-12-28T12:00:45;3.30;;;1.50;;
10701;SDS011;5402;50.004;8.246;2023-12-28T12:03:15;2.73;;;1.57;;
10701;SDS011;5402;50.004;8.246;2023-12-28T12:05:41;2.53;;;1.67;;
10701;SDS011;5402;50.004;8.246;2023-12-28T12:08:09;3.93;;;1.70;;
10701;SDS011;5402;50.004;8.246;2023-12-28T12:10:39;4.03;;;1.80;;
10701;SDS011;5402;50.004;8.246;2023-12-28T12:13:06;3.20;;;1.57;;
10701;SDS011;5402;50.004;8.246;2023-12-28T12:15:34;3.43;;;1.70;;
10701;SDS011;5402;50.004;8.246;2023-12-28T12:18:01;3.57;;;1.87;;
10701;SDS011;5402;50.004;8.246;2023-12-28T12:20:31;2.77;;;1.80;;
10701;SDS011;5402;50.004;8.246;2023-12-28T12:22:58;2.57;;;1.97;;
10701;SDS011;5402;50.004;8.246;2023-12-28T12:25:25;2.07;;;1.50;;
10701;SDS011;5402;50.004;8.246;2023-12-28T12:27:52;2.10;;;1.63;;
10701;SDS011;5402;50.004;8.246;2023-12-28T12:30:19;4.00;;;1.57;;
10701;SDS011;5402;50.004;8.246;2023-12-28T12:32:46;4.53;;;1.90;;
10701;SDS011;5402;50.004;8.246;2023-12-28T12:35:14;1.80;;;1.50;;
10701;SDS011;5402;50.004;8.246;2023-12-28T12:37:44;2.70;;;1.60;;
10701;SDS011;5402;50.004;8.246;2023-12-28T12:40:12;4.03;;;2.00;;
10701;SDS011;5402;50.004;8.246;2023-12-28T12:42:40;3.67;;;1.83;;
10701;SDS011;5402;50.004;8.246;2023-12-28T12:45:07;3.40;;;1.90;;
10701;SDS011;5402;50.004;8.246;2023-12-28T12:47:34;3.53;;;2.10;;
10701;SDS011;5402;50.004;8.246;2023-12-28T12:50:01;3.23;;;1.83;;
10701;SDS011;5402;50.004;8.246;2023-12-28T12:52:32;4.23;;;1.70;;
10701;SDS011;5402;50.004;8.246;2023-12-28T12:55:11;3.47;;;1.90;;
10701;SDS011;5402;50.004;8.246;2023-12-28T12:57:38;3.93;;;1.93;;
10701;SDS011;5402;50.004;8.246;2023-12-28T13:00:05;5.87;;;1.90;;
10701;SDS011;5402;50.004;8.246;2023-12-28T13:02:35;3.90;;;2.00;;
10701;SDS011;5402;50.004;8.246;2023-12-28T13:05:02;4.40;;;1.97;;
10701;SDS011;5402;50.004;8.246;2023-12-28T13:07:30;4.47;;;2.13;;
10701;SDS011;5402;50.004;8.246;2023-12-28T13:09:57;3.63;;;2.33;;
10701;SDS011;5402;50.004;8.246;2023-12-28T13:12:25;3.20;;;2.20;;
10701;SDS011;5402;50.004;8.246;2023-12-28T13:14:52;3.90;;;2.13;;
10701;SDS011;5402;50.004;8.246;2023-12-28T13:17:18;2.80;;;2.10;;
10701;SDS011;5402;50.004;8.246;2023-12-28T13:19:45;8.90;;;2.50;;
10701;SDS011;5402;50.004;8.246;2023-12-28T13:22:12;3.60;;;2.17;;
10701;SDS011;5402;50.004;8.246;2023-12-28T13:24:39;2.90;;;2.13;;
10701;SDS011;5402;50.004;8.246;2023-12-28T13:27:05;4.30;;;2.20;;
10701;SDS011;5402;50.004;8.246;2023-12-28T13:29:33;3.57;;;2.03;;
10701;SDS011;5402;50.004;8.246;2023-12-28T13:32:00;3.00;;;2.20;;
10701;SDS011;5402;50.004;8.246;2023-12-28T13:34:29;5.17;;;2.37;;
10701;SDS011;5402;50.004;8.246;2023-12-28T13:36:56;4.97;;;2.07;;
10701;SDS011;5402;50.004;8.246;2023-12-28T13:39:24;3.37;;;2.30;;
10701;SDS011;5402;50.004;8.246;2023-12-28T13:41:53;5.00;;;2.10;;
10701;SDS011;5402;50.004;8.246;2023-12-28T13:44:20;3.77;;;1.90;;
10701;SDS011;5402;50.004;8.246;2023-12-28T13:46:48;2.97;;;1.80;;
10701;SDS011;5402;50.004;8.246;2023-12-28T13:49:15;3.83;;;2.00;;
10701;SDS011;5402;50.004;8.246;2023-12-28T13:51:42;1.87;;;1.70;;
10701;SDS011;5402;50.004;8.246;2023-12-28T13:54:11;1.83;;;1.43;;
10701;SDS011;5402;50.004;8.246;2023-12-28T13:56:38;2.00;;;1.40;;
10701;SDS011;5402;50.004;8.246;2023-12-28T13:59:04;2.70;;;1.67;;
10701;SDS011;5402;50.004;8.246;2023-12-28T14:01:31;1.63;;;1.40;;
10701;SDS011;5402;50.004;8.246;2023-12-28T14:03:59;1.57;;;1.37;;
10701;SDS011;5402;50.004;8.246;2023-12-28T14:06:26;1.57;;;1.30;;
10701;SDS011;5402;50.004;8.246;2023-12-28T14:08:52;2.20;;;1.50;;
10701;SDS011;5402;50.004;8.246;2023-12-28T14:11:19;1.83;;;1.40;;
10701;SDS011;5402;50.004;8.246;2023-12-28T14:13:46;1.13;;;0.90;;
10701;SDS011;5402;50.004;8.246;2023-12-28T14:16:13;1.37;;;1.20;;
10701;SDS011;5402;50.004;8.246;2023-12-28T14:18:40;2.80;;;1.20;;
10701;SDS011;5402;50.004;8.246;2023-12-28T14:21:09;1.83;;;1.13;;
10701;SDS011;5402;50.004;8.246;2023-12-28T14:23:37;1.33;;;1.00;;
10701;SDS011;5402;50.004;8.246;2023-12-28T14:26:05;1.00;;;1.00;;
10701;SDS011;5402;50.004;8.246;2023-12-28T14:28:38;1.20;;;1.10;;
10701;SDS011;5402;50.004;8.246;2023-12-28T14:31:05;1.03;;;1.00;;
10701;SDS011;5402;50.004;8.246;2023-12-28T14:33:34;1.10;;;1.00;;
10701;SDS011;5402;50.004;8.246;2023-12-28T14:36:02;2.23;;;1.33;;
10701;SDS011;5402;50.004;8.246;2023-12-28T14:38:33;1.23;;;1.13;;
10701;SDS011;5402;50.004;8.246;2023-12-28T14:40:59;1.30;;;1.20;;
10701;SDS011;5402;50.004;8.246;2023-12-28T14:43:25;1.30;;;1.20;;
10701;SDS011;5402;50.004;8.246;2023-12-28T14:45:52;1.40;;;1.30;;
10701;SDS011;5402;50.004;8.246;2023-12-28T14:48:19;1.30;;;1.20;;
10701;SDS011;5402;50.004;8.246;2023-12-28T14:50:45;1.40;;;1.30;;
10701;SDS011;5402;50.004;8.246;2023-12-28T14:53:12;1.43;;;1.33;;
10701;SDS011;5402;50.004;8.246;2023-12-28T14:55:40;2.63;;;1.47;;
10701;SDS011;5402;50.004;8.246;2023-12-28T14:58:07;1.73;;;1.53;;
10701;SDS011;5402;50.004;8.246;2023-12-28T15:00:35;4.50;;;1.40;;